sensor_id;sensor_type;location;lat;lon;timestamp;P1;durP1;ratioP1;P2;durP2;ratioP2
20910;SDS011;10615;42.702;23.314;2023-11-21T00:00:39;47.90;;;26.83;;
20910;SDS011;10615;42.702;23.314;2023-11-21T00:01:40;41.35;;;25.23;;
20910;SDS011;10615;42.702;23.314;2023-11-21T00:02:41;42.40;;;26.00;;
20910;SDS011;10615;42.702;23.314;2023-11-21T00:03:42;42.38;;;25.58;;
20910;SDS011;10615;42.702;23.314;2023-11-21T00:04:43;43.92;;;25.70;;
20910;SDS011;10615;42.702;23.314;2023-11-21T00:05:45;44.72;;;25.10;;
20910;SDS011;10615;42.702;23.314;2023-11-21T00:06:45;43.38;;;25.42;;
20910;SDS011;10615;42.702;23.314;2023-11-21T00:07:46;41.60;;;24.05;;
20910;SDS011;10615;42.702;23.314;2023-11-21T00:08:47;42.92;;;23.38;;
20910;SDS011;10615;42.702;23.314;2023-11-21T00:09:48;44.03;;;24.20;;
20910;SDS011;10615;42.702;23.314;2023-11-21T00:10:49;43.30;;;24.48;;
20910;SDS011;10615;42.702;23.314;2023-11-21T00:11:51;44.80;;;24.90;;
20910;SDS011;10615;42.702;23.314;2023-11-21T00:12:51;48.30;;;24.50;;
20910;SDS011;10615;42.702;23.314;2023-11-21T00:13:55;44.92;;;24.27;;
20910;SDS011;10615;42.702;23.314;2023-11-21T00:14:55;43.10;;;24.05;;
20910;SDS011;10615;42.702;23.314;2023-11-21T00:15:56;40.20;;;23.38;;
20910;SDS011;10615;42.702;23.314;2023-11-21T00:16:57;42.65;;;24.55;;
20910;SDS011;10615;42.702;23.314;2023-11-21T00:17:59;37.28;;;22.75;;
20910;SDS011;10615;42.702;23.314;2023-11-21T00:19:00;44.03;;;24.52;;
20910;SDS011;10615;42.702;23.314;2023-11-21T00:20:00;40.78;;;23.58;;
20910;SDS011;10615;42.702;23.314;2023-11-21T00:21:02;39.80;;;23.02;;
20910;SDS011;10615;42.702;23.314;2023-11-21T00:22:03;42.40;;;22.65;;
20910;SDS011;10615;42.702;23.314;2023-11-21T00:23:04;39.88;;;21.70;;
20910;SDS011;10615;42.702;23.314;2023-11-21T00:24:05;38.25;;;22.02;;
20910;SDS011;10615;42.702;23.314;2023-11-21T00:25:06;41.25;;;23.33;;
20910;SDS011;10615;42.702;23.314;2023-11-21T00:26:08;43.38;;;22.60;;
20910;SDS011;10615;42.702;23.314;2023-11-21T00:27:10;41.53;;;23.25;;
20910;SDS011;10615;42.702;23.314;2023-11-21T00:28:10;38.17;;;21.88;;
20910;SDS011;10615;42.702;23.314;2023-11-21T00:29:11;36.17;;;21.80;;
20910;SDS011;10615;42.702;23.314;2023-11-21T00:30:12;39.28;;;21.77;;
20910;SDS011;10615;42.702;23.314;2023-11-21T00:31:13;37.65;;;22.33;;
20910;SDS011;10615;42.702;23.314;2023-11-21T00:32:13;39.88;;;22.63;;
20910;SDS011;10615;42.702;23.314;2023-11-21T00:33:14;37.33;;;21.10;;
20910;SDS011;10615;42.702;23.314;2023-11-21T00:34:15;42.80;;;22.17;;
20910;SDS011;10615;42.702;23.314;2023-11-21T00:35:15;38.20;;;21.98;;
20910;SDS011;10615;42.702;23.314;2023-11-21T00:36:16;37.97;;;21.63;;
20910;SDS011;10615;42.702;23.314;2023-11-21T00:37:17;34.70;;;21.52;;
20910;SDS011;10615;42.702;23.314;2023-11-21T00:38:17;36.70;;;21.33;;
20910;SDS011;10615;42.702;23.314;2023-11-21T00:39:20;40.05;;;21.95;;
20910;SDS011;10615;42.702;23.314;2023-11-21T00:40:21;40.15;;;22.05;;
20910;SDS011;10615;42.702;23.314;2023-11-21T00:41:22;38.17;;;21.58;;
20910;SDS011;10615;42.702;23.314;2023-11-21T00:42:23;37.90;;;22.35;;
20910;SDS011;10615;42.702;23.314;2023-11-21T00:43:23;41.63;;;23.17;;
20910;SDS011;10615;42.702;23.314;2023-11-21T00:44:24;43.88;;;23.25;;
20910;SDS011;10615;42.702;23.314;2023-11-21T00:45:25;37.72;;;22.63;;
20910;SDS011;10615;42.702;23.314;2023-11-21T00:46:25;38.95;;;23.15;;
20910;SDS011;10615;42.702;23.314;2023-11-21T00:47:29;38.05;;;22.13;;
20910;SDS011;10615;42.702;23.314;2023-11-21T00:48:29;37.85;;;21.98;;
20910;SDS011;10615;42.702;23.314;2023-11-21T00:49:30;37.65;;;21.83;;
20910;SDS011;10615;42.702;23.314;2023-11-21T00:50:32;36.70;;;20.95;;
20910;SDS011;10615;42.702;23.314;2023-11-21T00:51:33;37.08;;;21.95;;
20910;SDS011;10615;42.702;23.314;2023-11-21T00:52:34;38.63;;;22.15;;
20910;SDS011;10615;42.702;23.314;2023-11-21T00:53:34;39.70;;;21.83;;
20910;SDS011;10615;42.702;23.314;2023-11-21T00:54:35;32.63;;;20.48;;
20910;SDS011;10615;42.702;23.314;2023-11-21T00:55:36;34.78;;;20.70;;
20910;SDS011;10615;42.702;23.314;2023-11-21T00:56:40;38.72;;;20.67;;
20910;SDS011;10615;42.702;23.314;2023-11-21T00:57:40;36.65;;;21.95;;
20910;SDS011;10615;42.702;23.314;2023-11-21T00:58:41;36.78;;;20.48;;
20910;SDS011;10615;42.702;23.314;2023-11-21T00:59:49;35.60;;;20.60;;
20910;SDS011;10615;42.702;23.314;2023-11-21T01:00:50;38.45;;;22.30;;
20910;SDS011;10615;42.702;23.314;2023-11-21T01:01:51;33.33;;;21.00;;
20910;SDS011;10615;42.702;23.314;2023-11-21T01:02:51;34.88;;;20.52;;
20910;SDS011;10615;42.702;23.314;2023-11-21T01:03:52;33.50;;;19.90;;
20910;SDS011;10615;42.702;23.314;2023-11-21T01:04:54;32.70;;;19.65;;
20910;SDS011;10615;42.702;23.314;2023-11-21T01:05:54;33.20;;;20.02;;
20910;SDS011;10615;42.702;23.314;2023-11-21T01:06:55;34.92;;;20.25;;
20910;SDS011;10615;42.702;23.314;2023-11-21T01:07:56;34.70;;;20.33;;
20910;SDS011;10615;42.702;23.314;2023-11-21T01:08:56;34.30;;;20.83;;
20910;SDS011;10615;42.702;23.314;2023-11-21T01:09:57;37.05;;;22.30;;
20910;SDS011;10615;42.702;23.314;2023-11-21T01:10:58;38.13;;;23.42;;
20910;SDS011;10615;42.702;23.314;2023-11-21T01:11:58;38.78;;;24.05;;
20910;SDS011;10615;42.702;23.314;2023-11-21T01:12:59;46.33;;;26.20;;
20910;SDS011;10615;42.702;23.314;2023-11-21T01:14:00;48.75;;;26.90;;
20910;SDS011;10615;42.702;23.314;2023-11-21T01:15:01;48.38;;;26.77;;
20910;SDS011;10615;42.702;23.314;2023-11-21T01:16:02;53.95;;;29.80;;
20910;SDS011;10615;42.702;23.314;2023-11-21T01:17:04;59.78;;;30.10;;
20910;SDS011;10615;42.702;23.314;2023-11-21T01:18:05;51.88;;;29.60;;
20910;SDS011;10615;42.702;23.314;2023-11-21T01:19:06;48.75;;;27.65;;
20910;SDS011;10615;42.702;23.314;2023-11-21T01:20:07;46.92;;;28.30;;
20910;SDS011;10615;42.702;23.314;2023-11-21T01:21:12;48.92;;;27.83;;
20910;SDS011;10615;42.702;23.314;2023-11-21T01:22:12;42.72;;;26.75;;
20910;SDS011;10615;42.702;23.314;2023-11-21T01:23:13;43.63;;;26.60;;
20910;SDS011;10615;42.702;23.314;2023-11-21T01:24:14;46.00;;;26.85;;
20910;SDS011;10615;42.702;23.314;2023-11-21T01:25:15;43.90;;;24.92;;
20910;SDS011;10615;42.702;23.314;2023-11-21T01:26:16;42.03;;;26.15;;
20910;SDS011;10615;42.702;23.314;2023-11-21T01:27:17;44.40;;;26.10;;
20910;SDS011;10615;42.702;23.314;2023-11-21T01:28:18;45.38;;;25.83;;
20910;SDS011;10615;42.702;23.314;2023-11-21T01:29:19;45.25;;;25.23;;
20910;SDS011;10615;42.702;23.314;2023-11-21T01:30:20;42.00;;;24.60;;
20910;SDS011;10615;42.702;23.314;2023-11-21T01:31:21;42.33;;;26.38;;
20910;SDS011;10615;42.702;23.314;2023-11-21T01:32:21;46.30;;;26.92;;
20910;SDS011;10615;42.702;23.314;2023-11-21T01:33:22;46.08;;;26.20;;
20910;SDS011;10615;42.702;23.314;2023-11-21T01:34:24;40.70;;;25.33;;
20910;SDS011;10615;42.702;23.314;2023-11-21T01:35:25;48.05;;;26.50;;
20910;SDS011;10615;42.702;23.314;2023-11-21T01:36:32;47.08;;;26.50;;
20910;SDS011;10615;42.702;23.314;2023-11-21T01:37:33;46.45;;;27.63;;
20910;SDS011;10615;42.702;23.314;2023-11-21T01:38:34;41.45;;;26.38;;
20910;SDS011;10615;42.702;23.314;2023-11-21T01:39:34;48.22;;;26.05;;
20910;SDS011;10615;42.702;23.314;2023-11-21T01:40:35;41.17;;;25.25;;
20910;SDS011;10615;42.702;23.314;2023-11-21T01:41:36;41.60;;;25.73;;
20910;SDS011;10615;42.702;23.314;2023-11-21T01:42:36;43.92;;;26.33;;
20910;SDS011;10615;42.702;23.314;2023-11-21T01:43:37;47.88;;;27.40;;
20910;SDS011;10615;42.702;23.314;2023-11-21T01:44:38;39.60;;;23.80;;
20910;SDS011;10615;42.702;23.314;2023-11-21T01:45:39;38.25;;;24.17;;
20910;SDS011;10615;42.702;23.314;2023-11-21T01:46:40;38.45;;;23.13;;
20910;SDS011;10615;42.702;23.314;2023-11-21T01:47:41;42.28;;;23.50;;
20910;SDS011;10615;42.702;23.314;2023-11-21T01:48:44;38.17;;;23.38;;
20910;SDS011;10615;42.702;23.314;2023-11-21T01:49:45;41.22;;;23.85;;
20910;SDS011;10615;42.702;23.314;2023-11-21T01:50:47;44.67;;;25.08;;
20910;SDS011;10615;42.702;23.314;2023-11-21T01:51:49;49.08;;;25.95;;
20910;SDS011;10615;42.702;23.314;2023-11-21T01:52:50;41.38;;;25.65;;
20910;SDS011;10615;42.702;23.314;2023-11-21T01:53:52;45.72;;;25.67;;
20910;SDS011;10615;42.702;23.314;2023-11-21T01:54:54;42.53;;;25.02;;
20910;SDS011;10615;42.702;23.314;2023-11-21T01:55:55;43.00;;;25.52;;
20910;SDS011;10615;42.702;23.314;2023-11-21T01:56:57;47.00;;;25.83;;
20910;SDS011;10615;42.702;23.314;2023-11-21T01:58:02;40.03;;;24.58;;
20910;SDS011;10615;42.702;23.314;2023-11-21T01:59:03;44.33;;;25.95;;
20910;SDS011;10615;42.702;23.314;2023-11-21T02:00:04;43.15;;;26.48;;
20910;SDS011;10615;42.702;23.314;2023-11-21T02:01:19;45.15;;;26.33;;
20910;SDS011;10615;42.702;23.314;2023-11-21T02:02:20;43.45;;;25.70;;
20910;SDS011;10615;42.702;23.314;2023-11-21T02:03:20;44.30;;;25.60;;
20910;SDS011;10615;42.702;23.314;2023-11-21T02:04:21;43.15;;;25.45;;
20910;SDS011;10615;42.702;23.314;2023-11-21T02:05:22;46.38;;;24.75;;
20910;SDS011;10615;42.702;23.314;2023-11-21T02:06:22;40.47;;;24.08;;
20910;SDS011;10615;42.702;23.314;2023-11-21T02:07:24;40.95;;;23.70;;
20910;SDS011;10615;42.702;23.314;2023-11-21T02:08:25;41.20;;;24.45;;
20910;SDS011;10615;42.702;23.314;2023-11-21T02:09:27;41.10;;;24.73;;
20910;SDS011;10615;42.702;23.314;2023-11-21T02:10:30;45.17;;;25.40;;
20910;SDS011;10615;42.702;23.314;2023-11-21T02:11:31;39.80;;;23.70;;
20910;SDS011;10615;42.702;23.314;2023-11-21T02:12:35;43.20;;;24.17;;
20910;SDS011;10615;42.702;23.314;2023-11-21T02:13:35;40.38;;;25.10;;
20910;SDS011;10615;42.702;23.314;2023-11-21T02:14:36;40.25;;;24.55;;
20910;SDS011;10615;42.702;23.314;2023-11-21T02:15:37;45.22;;;25.65;;
20910;SDS011;10615;42.702;23.314;2023-11-21T02:16:38;42.90;;;24.98;;
20910;SDS011;10615;42.702;23.314;2023-11-21T02:17:43;43.47;;;25.98;;
20910;SDS011;10615;42.702;23.314;2023-11-21T02:18:44;48.90;;;25.35;;
20910;SDS011;10615;42.702;23.314;2023-11-21T02:19:47;40.90;;;24.60;;
20910;SDS011;10615;42.702;23.314;2023-11-21T02:20:51;42.33;;;25.52;;
20910;SDS011;10615;42.702;23.314;2023-11-21T02:21:52;39.03;;;24.08;;
20910;SDS011;10615;42.702;23.314;2023-11-21T02:22:54;44.00;;;25.45;;
20910;SDS011;10615;42.702;23.314;2023-11-21T02:23:59;40.80;;;24.33;;
20910;SDS011;10615;42.702;23.314;2023-11-21T02:25:00;43.67;;;24.55;;
20910;SDS011;10615;42.702;23.314;2023-11-21T02:26:01;42.33;;;25.23;;
20910;SDS011;10615;42.702;23.314;2023-11-21T02:27:04;38.78;;;23.95;;
20910;SDS011;10615;42.702;23.314;2023-11-21T02:28:06;37.42;;;23.58;;
20910;SDS011;10615;42.702;23.314;2023-11-21T02:29:07;42.10;;;24.15;;
20910;SDS011;10615;42.702;23.314;2023-11-21T02:30:11;36.00;;;22.95;;
20910;SDS011;10615;42.702;23.314;2023-11-21T02:31:13;39.70;;;23.98;;
20910;SDS011;10615;42.702;23.314;2023-11-21T02:32:14;41.63;;;24.42;;
20910;SDS011;10615;42.702;23.314;2023-11-21T02:33:15;39.55;;;23.02;;
20910;SDS011;10615;42.702;23.314;2023-11-21T02:34:16;36.63;;;23.45;;
20910;SDS011;10615;42.702;23.314;2023-11-21T02:35:17;40.65;;;25.50;;
20910;SDS011;10615;42.702;23.314;2023-11-21T02:36:18;46.30;;;27.05;;
20910;SDS011;10615;42.702;23.314;2023-11-21T02:37:21;45.90;;;26.65;;
20910;SDS011;10615;42.702;23.314;2023-11-21T02:38:22;44.60;;;25.65;;
20910;SDS011;10615;42.702;23.314;2023-11-21T02:39:23;44.65;;;25.48;;
20910;SDS011;10615;42.702;23.314;2023-11-21T02:40:24;41.75;;;24.83;;
20910;SDS011;10615;42.702;23.314;2023-11-21T02:41:26;39.85;;;24.23;;
20910;SDS011;10615;42.702;23.314;2023-11-21T02:42:27;41.25;;;23.70;;
20910;SDS011;10615;42.702;23.314;2023-11-21T02:43:27;42.42;;;25.48;;
20910;SDS011;10615;42.702;23.314;2023-11-21T02:44:28;40.45;;;24.60;;
20910;SDS011;10615;42.702;23.314;2023-11-21T02:45:29;41.42;;;24.77;;
20910;SDS011;10615;42.702;23.314;2023-11-21T02:46:29;36.30;;;23.67;;
20910;SDS011;10615;42.702;23.314;2023-11-21T02:47:32;41.88;;;23.50;;
20910;SDS011;10615;42.702;23.314;2023-11-21T02:48:33;37.40;;;21.92;;
20910;SDS011;10615;42.702;23.314;2023-11-21T02:49:34;33.97;;;21.33;;
20910;SDS011;10615;42.702;23.314;2023-11-21T02:50:35;41.08;;;23.40;;
20910;SDS011;10615;42.702;23.314;2023-11-21T02:51:37;37.67;;;22.73;;
20910;SDS011;10615;42.702;23.314;2023-11-21T02:52:39;35.15;;;22.73;;
20910;SDS011;10615;42.702;23.314;2023-11-21T02:53:42;38.03;;;21.67;;
20910;SDS011;10615;42.702;23.314;2023-11-21T02:54:43;36.65;;;21.85;;
20910;SDS011;10615;42.702;23.314;2023-11-21T02:55:43;35.83;;;22.38;;
20910;SDS011;10615;42.702;23.314;2023-11-21T02:56:44;36.85;;;21.83;;
20910;SDS011;10615;42.702;23.314;2023-11-21T02:57:46;35.65;;;20.77;;
20910;SDS011;10615;42.702;23.314;2023-11-21T02:58:46;35.80;;;20.33;;
20910;SDS011;10615;42.702;23.314;2023-11-21T02:59:47;33.08;;;20.85;;
20910;SDS011;10615;42.702;23.314;2023-11-21T03:00:48;31.42;;;19.17;;
20910;SDS011;10615;42.702;23.314;2023-11-21T03:01:48;34.80;;;20.42;;
20910;SDS011;10615;42.702;23.314;2023-11-21T03:02:49;33.63;;;20.08;;
20910;SDS011;10615;42.702;23.314;2023-11-21T03:03:50;35.17;;;20.05;;
20910;SDS011;10615;42.702;23.314;2023-11-21T03:04:51;34.08;;;19.73;;
20910;SDS011;10615;42.702;23.314;2023-11-21T03:05:51;33.17;;;19.77;;
20910;SDS011;10615;42.702;23.314;2023-11-21T03:06:52;31.80;;;18.95;;
20910;SDS011;10615;42.702;23.314;2023-11-21T03:07:53;29.48;;;18.35;;
20910;SDS011;10615;42.702;23.314;2023-11-21T03:08:53;34.63;;;19.90;;
20910;SDS011;10615;42.702;23.314;2023-11-21T03:09:54;33.78;;;19.80;;
20910;SDS011;10615;42.702;23.314;2023-11-21T03:10:55;29.90;;;18.60;;
20910;SDS011;10615;42.702;23.314;2023-11-21T03:11:56;29.83;;;18.48;;
20910;SDS011;10615;42.702;23.314;2023-11-21T03:12:56;32.38;;;18.88;;
20910;SDS011;10615;42.702;23.314;2023-11-21T03:13:57;32.92;;;18.77;;
20910;SDS011;10615;42.702;23.314;2023-11-21T03:14:58;28.80;;;18.17;;
20910;SDS011;10615;42.702;23.314;2023-11-21T03:15:59;34.70;;;18.55;;
20910;SDS011;10615;42.702;23.314;2023-11-21T03:17:00;31.58;;;19.35;;
20910;SDS011;10615;42.702;23.314;2023-11-21T03:18:01;31.88;;;19.38;;
20910;SDS011;10615;42.702;23.314;2023-11-21T03:19:02;30.63;;;18.50;;
20910;SDS011;10615;42.702;23.314;2023-11-21T03:20:03;32.63;;;18.70;;
20910;SDS011;10615;42.702;23.314;2023-11-21T03:21:04;33.42;;;19.05;;
20910;SDS011;10615;42.702;23.314;2023-11-21T03:22:06;32.13;;;19.00;;
20910;SDS011;10615;42.702;23.314;2023-11-21T03:23:06;32.13;;;19.45;;
20910;SDS011;10615;42.702;23.314;2023-11-21T03:24:07;35.65;;;20.23;;
20910;SDS011;10615;42.702;23.314;2023-11-21T03:25:08;37.15;;;20.05;;
20910;SDS011;10615;42.702;23.314;2023-11-21T03:26:14;32.67;;;20.05;;
20910;SDS011;10615;42.702;23.314;2023-11-21T03:27:14;36.88;;;20.10;;
20910;SDS011;10615;42.702;23.314;2023-11-21T03:28:15;36.08;;;20.70;;
20910;SDS011;10615;42.702;23.314;2023-11-21T03:29:16;32.00;;;20.27;;
20910;SDS011;10615;42.702;23.314;2023-11-21T03:30:16;32.58;;;19.73;;
20910;SDS011;10615;42.702;23.314;2023-11-21T03:31:17;36.22;;;19.90;;
20910;SDS011;10615;42.702;23.314;2023-11-21T03:32:18;33.85;;;20.63;;
20910;SDS011;10615;42.702;23.314;2023-11-21T03:33:19;37.08;;;21.98;;
20910;SDS011;10615;42.702;23.314;2023-11-21T03:34:24;38.33;;;22.17;;
20910;SDS011;10615;42.702;23.314;2023-11-21T03:35:28;36.80;;;21.58;;
20910;SDS011;10615;42.702;23.314;2023-11-21T03:36:28;38.25;;;21.98;;
20910;SDS011;10615;42.702;23.314;2023-11-21T03:37:29;34.65;;;20.45;;
20910;SDS011;10615;42.702;23.314;2023-11-21T03:38:30;36.63;;;21.98;;
20910;SDS011;10615;42.702;23.314;2023-11-21T03:39:31;34.15;;;21.48;;
20910;SDS011;10615;42.702;23.314;2023-11-21T03:40:31;37.33;;;21.48;;
20910;SDS011;10615;42.702;23.314;2023-11-21T03:41:32;36.25;;;21.88;;
20910;SDS011;10615;42.702;23.314;2023-11-21T03:42:34;39.67;;;23.63;;
20910;SDS011;10615;42.702;23.314;2023-11-21T03:43:35;37.95;;;20.55;;
20910;SDS011;10615;42.702;23.314;2023-11-21T03:44:36;34.60;;;21.20;;
20910;SDS011;10615;42.702;23.314;2023-11-21T03:45:37;30.52;;;18.55;;
20910;SDS011;10615;42.702;23.314;2023-11-21T03:46:37;32.42;;;18.83;;
20910;SDS011;10615;42.702;23.314;2023-11-21T03:47:38;29.50;;;18.33;;
20910;SDS011;10615;42.702;23.314;2023-11-21T03:48:39;28.42;;;18.30;;
20910;SDS011;10615;42.702;23.314;2023-11-21T03:49:40;28.42;;;18.35;;
20910;SDS011;10615;42.702;23.314;2023-11-21T03:50:40;32.75;;;18.45;;
20910;SDS011;10615;42.702;23.314;2023-11-21T03:51:41;33.08;;;17.63;;
20910;SDS011;10615;42.702;23.314;2023-11-21T03:52:42;28.35;;;17.05;;
20910;SDS011;10615;42.702;23.314;2023-11-21T03:53:43;27.63;;;17.17;;
20910;SDS011;10615;42.702;23.314;2023-11-21T03:54:43;24.55;;;13.95;;
20910;SDS011;10615;42.702;23.314;2023-11-21T03:55:44;22.90;;;13.63;;
20910;SDS011;10615;42.702;23.314;2023-11-21T03:56:45;25.40;;;14.50;;
20910;SDS011;10615;42.702;23.314;2023-11-21T03:57:45;23.92;;;15.27;;
20910;SDS011;10615;42.702;23.314;2023-11-21T03:58:46;25.98;;;15.18;;
20910;SDS011;10615;42.702;23.314;2023-11-21T03:59:47;22.05;;;12.73;;
20910;SDS011;10615;42.702;23.314;2023-11-21T04:00:48;20.25;;;13.10;;
20910;SDS011;10615;42.702;23.314;2023-11-21T04:01:51;20.10;;;12.70;;
20910;SDS011;10615;42.702;23.314;2023-11-21T04:02:52;20.30;;;12.10;;
20910;SDS011;10615;42.702;23.314;2023-11-21T04:03:53;19.73;;;12.15;;
20910;SDS011;10615;42.702;23.314;2023-11-21T04:04:53;20.10;;;12.27;;
20910;SDS011;10615;42.702;23.314;2023-11-21T04:05:54;19.60;;;11.57;;
20910;SDS011;10615;42.702;23.314;2023-11-21T04:06:55;28.40;;;11.80;;
20910;SDS011;10615;42.702;23.314;2023-11-21T04:07:56;23.38;;;12.18;;
20910;SDS011;10615;42.702;23.314;2023-11-21T04:08:57;18.92;;;12.05;;
20910;SDS011;10615;42.702;23.314;2023-11-21T04:09:57;22.48;;;12.65;;
20910;SDS011;10615;42.702;23.314;2023-11-21T04:10:59;23.73;;;12.52;;
20910;SDS011;10615;42.702;23.314;2023-11-21T04:11:59;19.88;;;12.23;;
20910;SDS011;10615;42.702;23.314;2023-11-21T04:13:00;19.00;;;12.52;;
20910;SDS011;10615;42.702;23.314;2023-11-21T04:14:01;21.70;;;13.60;;
20910;SDS011;10615;42.702;23.314;2023-11-21T04:15:02;19.90;;;13.07;;
20910;SDS011;10615;42.702;23.314;2023-11-21T04:16:03;23.98;;;12.65;;
20910;SDS011;10615;42.702;23.314;2023-11-21T04:17:05;21.45;;;12.70;;
20910;SDS011;10615;42.702;23.314;2023-11-21T04:18:05;22.83;;;12.90;;
20910;SDS011;10615;42.702;23.314;2023-11-21T04:19:06;28.10;;;13.50;;
20910;SDS011;10615;42.702;23.314;2023-11-21T04:20:07;20.73;;;12.88;;
20910;SDS011;10615;42.702;23.314;2023-11-21T04:21:09;26.23;;;14.30;;
20910;SDS011;10615;42.702;23.314;2023-11-21T04:22:09;24.63;;;13.90;;
20910;SDS011;10615;42.702;23.314;2023-11-21T04:23:10;24.40;;;13.02;;
20910;SDS011;10615;42.702;23.314;2023-11-21T04:24:13;23.17;;;13.05;;
20910;SDS011;10615;42.702;23.314;2023-11-21T04:25:14;23.15;;;12.95;;
20910;SDS011;10615;42.702;23.314;2023-11-21T04:26:15;22.55;;;13.75;;
20910;SDS011;10615;42.702;23.314;2023-11-21T04:27:16;22.65;;;13.90;;
20910;SDS011;10615;42.702;23.314;2023-11-21T04:28:20;25.92;;;14.27;;
20910;SDS011;10615;42.702;23.314;2023-11-21T04:29:20;22.75;;;13.40;;
20910;SDS011;10615;42.702;23.314;2023-11-21T04:30:21;22.40;;;13.40;;
20910;SDS011;10615;42.702;23.314;2023-11-21T04:31:23;23.13;;;14.18;;
20910;SDS011;10615;42.702;23.314;2023-11-21T04:32:24;25.00;;;14.15;;
20910;SDS011;10615;42.702;23.314;2023-11-21T04:33:25;26.10;;;14.40;;
20910;SDS011;10615;42.702;23.314;2023-11-21T04:34:26;25.92;;;15.63;;
20910;SDS011;10615;42.702;23.314;2023-11-21T04:35:27;29.45;;;16.17;;
20910;SDS011;10615;42.702;23.314;2023-11-21T04:36:28;25.45;;;15.73;;
20910;SDS011;10615;42.702;23.314;2023-11-21T04:37:30;26.95;;;15.90;;
20910;SDS011;10615;42.702;23.314;2023-11-21T04:38:31;26.27;;;15.32;;
20910;SDS011;10615;42.702;23.314;2023-11-21T04:39:33;24.70;;;15.57;;
20910;SDS011;10615;42.702;23.314;2023-11-21T04:40:33;28.00;;;16.42;;
20910;SDS011;10615;42.702;23.314;2023-11-21T04:41:34;31.70;;;16.25;;
20910;SDS011;10615;42.702;23.314;2023-11-21T04:42:36;31.88;;;17.48;;
20910;SDS011;10615;42.702;23.314;2023-11-21T04:43:37;29.02;;;16.52;;
20910;SDS011;10615;42.702;23.314;2023-11-21T04:44:38;27.70;;;16.33;;
20910;SDS011;10615;42.702;23.314;2023-11-21T04:45:41;28.08;;;16.75;;
20910;SDS011;10615;42.702;23.314;2023-11-21T04:46:41;27.05;;;16.77;;
20910;SDS011;10615;42.702;23.314;2023-11-21T04:47:42;29.15;;;16.17;;
20910;SDS011;10615;42.702;23.314;2023-11-21T04:48:43;28.05;;;15.82;;
20910;SDS011;10615;42.702;23.314;2023-11-21T04:49:45;28.42;;;16.15;;
20910;SDS011;10615;42.702;23.314;2023-11-21T04:50:47;28.77;;;17.73;;
20910;SDS011;10615;42.702;23.314;2023-11-21T04:51:47;29.35;;;17.42;;
20910;SDS011;10615;42.702;23.314;2023-11-21T04:52:48;27.45;;;16.83;;
20910;SDS011;10615;42.702;23.314;2023-11-21T04:53:49;29.35;;;17.65;;
20910;SDS011;10615;42.702;23.314;2023-11-21T04:54:49;28.70;;;17.40;;
20910;SDS011;10615;42.702;23.314;2023-11-21T04:55:50;28.83;;;17.15;;
20910;SDS011;10615;42.702;23.314;2023-11-21T04:56:51;27.85;;;16.50;;
20910;SDS011;10615;42.702;23.314;2023-11-21T04:57:51;29.27;;;17.75;;
20910;SDS011;10615;42.702;23.314;2023-11-21T04:58:53;29.85;;;17.40;;
20910;SDS011;10615;42.702;23.314;2023-11-21T04:59:54;31.17;;;17.73;;
20910;SDS011;10615;42.702;23.314;2023-11-21T05:00:55;27.38;;;16.35;;
20910;SDS011;10615;42.702;23.314;2023-11-21T05:01:56;32.08;;;17.50;;
20910;SDS011;10615;42.702;23.314;2023-11-21T05:02:56;28.33;;;16.48;;
20910;SDS011;10615;42.702;23.314;2023-11-21T05:03:57;27.33;;;17.52;;
20910;SDS011;10615;42.702;23.314;2023-11-21T05:04:58;29.48;;;17.05;;
20910;SDS011;10615;42.702;23.314;2023-11-21T05:05:59;26.85;;;16.80;;
20910;SDS011;10615;42.702;23.314;2023-11-21T05:07:00;26.15;;;16.08;;
20910;SDS011;10615;42.702;23.314;2023-11-21T05:08:01;26.70;;;17.30;;
20910;SDS011;10615;42.702;23.314;2023-11-21T05:09:02;26.98;;;16.08;;
20910;SDS011;10615;42.702;23.314;2023-11-21T05:10:05;27.75;;;16.35;;
20910;SDS011;10615;42.702;23.314;2023-11-21T05:11:09;26.55;;;16.35;;
20910;SDS011;10615;42.702;23.314;2023-11-21T05:12:10;27.52;;;17.17;;
20910;SDS011;10615;42.702;23.314;2023-11-21T05:13:12;27.27;;;15.98;;
20910;SDS011;10615;42.702;23.314;2023-11-21T05:14:12;27.52;;;16.00;;
20910;SDS011;10615;42.702;23.314;2023-11-21T05:15:14;30.35;;;16.48;;
20910;SDS011;10615;42.702;23.314;2023-11-21T05:16:17;29.08;;;16.73;;
20910;SDS011;10615;42.702;23.314;2023-11-21T05:17:18;30.85;;;16.25;;
20910;SDS011;10615;42.702;23.314;2023-11-21T05:18:19;25.55;;;16.13;;
20910;SDS011;10615;42.702;23.314;2023-11-21T05:19:20;28.05;;;15.80;;
20910;SDS011;10615;42.702;23.314;2023-11-21T05:20:21;28.00;;;17.08;;
20910;SDS011;10615;42.702;23.314;2023-11-21T05:21:21;31.92;;;17.33;;
20910;SDS011;10615;42.702;23.314;2023-11-21T05:22:22;30.10;;;17.35;;
20910;SDS011;10615;42.702;23.314;2023-11-21T05:23:23;27.45;;;17.30;;
20910;SDS011;10615;42.702;23.314;2023-11-21T05:24:24;27.60;;;18.10;;
20910;SDS011;10615;42.702;23.314;2023-11-21T05:25:24;29.70;;;17.65;;
20910;SDS011;10615;42.702;23.314;2023-11-21T05:26:25;28.88;;;17.83;;
20910;SDS011;10615;42.702;23.314;2023-11-21T05:27:26;30.40;;;16.27;;
20910;SDS011;10615;42.702;23.314;2023-11-21T05:28:27;26.33;;;16.10;;
20910;SDS011;10615;42.702;23.314;2023-11-21T05:29:27;25.10;;;15.35;;
20910;SDS011;10615;42.702;23.314;2023-11-21T05:30:28;24.10;;;15.35;;
20910;SDS011;10615;42.702;23.314;2023-11-21T05:31:29;26.23;;;15.15;;
20910;SDS011;10615;42.702;23.314;2023-11-21T05:32:29;26.58;;;16.45;;
20910;SDS011;10615;42.702;23.314;2023-11-21T05:33:30;29.27;;;16.63;;
20910;SDS011;10615;42.702;23.314;2023-11-21T05:34:33;30.95;;;16.33;;
20910;SDS011;10615;42.702;23.314;2023-11-21T05:35:33;31.52;;;16.23;;
20910;SDS011;10615;42.702;23.314;2023-11-21T05:36:34;31.17;;;16.15;;
20910;SDS011;10615;42.702;23.314;2023-11-21T05:37:35;32.20;;;16.10;;
20910;SDS011;10615;42.702;23.314;2023-11-21T05:38:36;29.38;;;16.20;;
20910;SDS011;10615;42.702;23.314;2023-11-21T05:39:36;28.25;;;15.73;;
20910;SDS011;10615;42.702;23.314;2023-11-21T05:40:37;30.65;;;16.17;;
20910;SDS011;10615;42.702;23.314;2023-11-21T05:41:38;30.30;;;16.63;;
20910;SDS011;10615;42.702;23.314;2023-11-21T05:42:39;24.73;;;15.10;;
20910;SDS011;10615;42.702;23.314;2023-11-21T05:43:40;26.35;;;16.52;;
20910;SDS011;10615;42.702;23.314;2023-11-21T05:44:41;28.30;;;15.77;;
20910;SDS011;10615;42.702;23.314;2023-11-21T05:45:43;26.15;;;16.15;;
20910;SDS011;10615;42.702;23.314;2023-11-21T05:46:44;25.05;;;16.10;;
20910;SDS011;10615;42.702;23.314;2023-11-21T05:47:45;29.17;;;17.15;;
20910;SDS011;10615;42.702;23.314;2023-11-21T05:48:46;27.17;;;16.52;;
20910;SDS011;10615;42.702;23.314;2023-11-21T05:49:47;30.55;;;17.88;;
20910;SDS011;10615;42.702;23.314;2023-11-21T05:50:50;35.92;;;17.77;;
20910;SDS011;10615;42.702;23.314;2023-11-21T05:51:51;30.15;;;16.85;;
20910;SDS011;10615;42.702;23.314;2023-11-21T05:52:53;29.75;;;17.10;;